New Germany, Minnesota
Current Conditions -  °F | °C
As of 1:54 PM on Sunday 23 Nov 2014 (Local Time) from KGYL Reporting Station
Drizzle Drizzle  
Wind Chill: 35°   Ceiling: 3200
Heat Index: 41°   Visibility: 7mi
Dew Point: 39°   Wind: 9mph
Humidity: 93%   Direction: 300°WNW
Pressure: 29.42"   Gusts: NA
Location:  44.88°N, 93.97°W
Report Text: KGYL 231954Z AUTO 30008KT 7SM -DZ SCT008 SCT012 BKN032 05/04 A2942 RMK AO2 T00490039
Loading
Personal Weather Stations






























Interactive Weather Map New forecast layout! Learn more

10-Day Weather Forecast

Advertisements
Track Severe Weather on mobile